Time;durP1;ratioP1;P1;durP2;ratioP2;P2;SDS_P1;SDS_P2;PMS_P1;PMS_P2;Temp;Humidity;BMP_temperature;BMP_pressure;BME280_temperature;BME280_humidity;BME280_pressure;Samples;Min_cycle;Max_cycle;Signal;HPM_P1;HPM_P2
2021/05/19 00:01:28;;;;;;;;;;;;;;;21.56;62.70;101177.66;5141274;27;1933;-69
2021/05/19 00:04:14;;;;;;;;;;;;;;;21.54;62.76;101184.84;5142639;27;1145;-69
2021/05/19 00:07:00;;;;;;;;;;;;;;;21.56;62.83;101187.41;5143140;27;1305;-69
2021/05/19 00:09:45;;;;;;;;;;;;;;;21.55;62.85;101173.28;5128123;27;1197;-68
2021/05/19 00:12:30;;;;;;;;;;;;;;;21.54;62.87;101173.41;5127683;27;1247;-69
2021/05/19 00:15:15;;;;;;;;;;;;;;;21.53;62.78;101176.97;5142267;27;1325;-68
2021/05/19 00:18:02;;;;;;;;;;;;;;;21.54;62.73;101166.31;5143027;27;1168;-68
2021/05/19 00:20:48;;;;;;;;;;;;;;;21.54;63.17;101168.94;5137144;27;1331;-68
2021/05/19 00:23:34;;;;;;;;;;;;;;;21.54;62.87;101173.41;5141900;27;1287;-68
2021/05/19 00:26:19;;;;;;;;;;;;;;;21.54;62.94;101178.69;5126907;27;1330;-68
2021/05/19 00:29:08;;;;;;;;;;;;;;;21.53;62.92;101177.84;5142916;27;1184;-68
2021/05/19 00:31:54;;;;;;;;;;;;;;;21.54;63.08;101176.91;5141240;27;1294;-69
2021/05/19 00:34:39;;;;;;;;;;;;;;;21.52;63.13;101176.13;5142635;27;1069;-68
2021/05/19 00:37:25;;;;;;;;;;;;;;;21.53;62.88;101182.28;5142677;27;1426;-69
2021/05/19 00:40:10;;;;;;;;;;;;;;;21.53;63.29;101187.59;5137221;27;1420;-69
2021/05/19 00:42:57;;;;;;;;;;;;;;;21.52;62.93;101186.72;5141345;27;1976;-69
2021/05/19 00:45:43;;;;;;;;;;;;;;;21.52;63.23;101185.91;5142154;27;1405;-68
2021/05/19 00:48:28;;;;;;;;;;;;;;;21.51;63.06;101205.41;5142944;27;1181;-68
2021/05/19 00:51:13;;;;;;;;;;;;;;;21.53;62.91;101208.78;5141120;27;1310;-68
2021/05/19 00:53:59;;;;;;;;;;;;;;;21.53;63.29;101214.94;5141663;27;1220;-68
2021/05/19 00:56:45;;;;;;;;;;;;;;;21.51;63.11;101219.50;5142035;27;1385;-68
2021/05/19 00:59:30;;;;;;;;;;;;;;;21.52;62.93;101220.38;5142797;27;1113;-68
2021/05/19 01:02:15;;;;;;;;;;;;;;;21.50;63.12;101216.94;5140734;27;1902;-68
2021/05/19 01:05:01;;;;;;;;;;;;;;;21.50;62.98;101224.88;5141653;27;1142;-68
2021/05/19 01:10:53;;;;;;;;;;;;;;;21.49;62.66;101234.63;5124808;27;1252;-68
2021/05/19 01:13:42;;;;;;;;;;;;;;;21.49;62.87;101237.28;5126749;27;1102;-69
2021/05/19 01:16:28;;;;;;;;;;;;;;;21.50;62.42;101239.00;5141852;27;1314;-69
2021/05/19 01:19:14;;;;;;;;;;;;;;;21.50;62.39;101238.13;5142165;27;1324;-68
2021/05/19 01:22:19;;;;;;;;;;;;;;;21.48;62.75;101245.34;5140650;27;1887;-68
2021/05/19 01:25:05;;;;;;;;;;;;;;;21.49;62.46;101260.31;5126605;27;1150;-68
2021/05/19 01:27:54;;;;;;;;;;;;;;;21.48;62.62;101264.75;5141706;27;1130;-68
2021/05/19 01:30:40;;;;;;;;;;;;;;;21.48;62.39;101253.28;5140156;27;1311;-68
2021/05/19 01:33:26;;;;;;;;;;;;;;;21.48;62.31;101248.00;5123091;27;1157;-67
2021/05/19 01:36:11;;;;;;;;;;;;;;;21.47;62.18;101241.84;5141808;27;1444;-68
2021/05/19 01:38:56;;;;;;;;;;;;;;;21.47;62.41;101240.97;5139789;27;1180;-68
2021/05/19 01:41:42;;;;;;;;;;;;;;;21.47;62.13;101246.28;5140140;27;1905;-68
2021/05/19 01:44:27;;;;;;;;;;;;;;;21.45;62.42;101230.47;5141340;27;1134;-67
2021/05/19 01:47:12;;;;;;;;;;;;;;;21.46;62.63;101241.94;5141485;27;1282;-68
2021/05/19 01:49:58;;;;;;;;;;;;;;;21.46;62.43;101229.50;5139404;27;1913;-68
2021/05/19 01:52:44;;;;;;;;;;;;;;;21.46;62.43;101239.28;5140426;27;1221;-68
2021/05/19 01:55:29;;;;;;;;;;;;;;;21.44;62.33;101242.03;5140865;27;1279;-68
2021/05/19 01:58:14;;;;;;;;;;;;;;;21.45;62.34;101241.09;5141531;27;1196;-67
2021/05/19 02:01:00;;;;;;;;;;;;;;;21.45;62.46;101234.94;5139094;27;1348;-68
2021/05/19 02:03:45;;;;;;;;;;;;;;;21.44;62.37;101242.03;5140153;27;1905;-68
2021/05/19 02:07:03;;;;;;;;;;;;;;;21.44;62.27;101235.84;5141287;27;1345;-68
2021/05/19 02:09:49;;;;;;;;;;;;;;;21.42;62.20;101233.31;5107212;27;1186;-68
2021/05/19 02:12:34;;;;;;;;;;;;;;;21.42;62.08;101217.41;5141145;27;1150;-68
2021/05/19 02:15:20;;;;;;;;;;;;;;;21.43;62.31;101213.78;5125345;27;1465;-68
2021/05/19 02:18:05;;;;;;;;;;;;;;;21.41;62.15;101220.16;5139347;27;1161;-68
2021/05/19 02:20:51;;;;;;;;;;;;;;;21.42;62.21;101216.56;5138805;27;1322;-68
2021/05/19 02:23:36;;;;;;;;;;;;;;;21.42;62.51;101212.13;5141002;27;1979;-68
2021/05/19 02:26:21;;;;;;;;;;;;;;;21.42;62.51;101208.59;5139051;27;1307;-68
2021/05/19 02:29:07;;;;;;;;;;;;;;;21.41;62.55;101209.53;5139792;27;1148;-68
2021/05/19 02:31:52;;;;;;;;;;;;;;;21.41;62.44;101209.53;5140079;27;1315;-68
2021/05/19 02:34:37;;;;;;;;;;;;;;;21.42;62.21;101203.31;5140956;27;1181;-67
2021/05/19 02:37:23;;;;;;;;;;;;;;;21.41;62.63;101209.53;5138816;27;1311;-68
2021/05/19 02:40:11;;;;;;;;;;;;;;;21.40;62.40;101213.97;5139694;27;1273;-68
2021/05/19 02:42:57;;;;;;;;;;;;;;;21.41;62.49;101225.44;5140543;27;1913;-68
2021/05/19 02:45:42;;;;;;;;;;;;;;;21.39;62.52;101217.59;5138206;27;1332;-68
2021/05/19 02:48:28;;;;;;;;;;;;;;;21.39;62.59;101214.94;5124659;27;1181;-68
2021/05/19 02:51:13;;;;;;;;;;;;;;;21.41;62.31;101222.78;5119095;27;1379;-68
2021/05/19 02:53:59;;;;;;;;;;;;;;;21.39;62.38;101232.66;5119695;27;1137;-69
2021/05/19 02:56:44;;;;;;;;;;;;;;;21.39;62.31;101236.16;5117633;27;1291;-69
2021/05/19 02:59:30;;;;;;;;;;;;;;;21.38;62.54;101244.19;5103968;27;1157;-69
2021/05/19 03:02:15;;;;;;;;;;;;;;;21.38;62.61;101245.03;5119389;27;1906;-69
2021/05/19 03:05:01;;;;;;;;;;;;;;;21.38;62.52;101237.09;5104121;27;1185;-69
2021/05/19 03:07:46;;;;;;;;;;;;;;;21.38;62.24;101246.84;5102852;27;1277;-69
2021/05/19 03:10:34;;;;;;;;;;;;;;;21.39;62.29;101248.53;5104385;28;1347;-67
2021/05/19 03:13:20;;;;;;;;;;;;;;;21.38;62.44;101258.28;5119777;27;1188;-68
2021/05/19 03:16:05;;;;;;;;;;;;;;;21.37;62.58;101261.03;5117415;27;1323;-68
2021/05/19 03:18:51;;;;;;;;;;;;;;;21.38;62.32;101262.72;5099960;28;1247;-68
2021/05/19 03:21:36;;;;;;;;;;;;;;;21.38;62.56;101270.69;5118932;28;1393;-69
2021/05/19 03:24:22;;;;;;;;;;;;;;;21.38;62.55;101276.84;5119518;28;1145;-68
2021/05/19 03:27:07;;;;;;;;;;;;;;;21.36;62.70;101278.75;5117590;28;1259;-68
2021/05/19 03:29:53;;;;;;;;;;;;;;;21.37;62.24;101287.53;5118582;28;1166;-68
2021/05/19 03:32:39;;;;;;;;;;;;;;;21.35;62.71;101287.63;5105143;27;1181;-68
2021/05/19 03:35:24;;;;;;;;;;;;;;;21.36;62.65;101297.28;5123841;27;1409;-68
2021/05/19 03:38:10;;;;;;;;;;;;;;;21.36;62.58;101294.63;5124028;27;1070;-68
2021/05/19 03:40:55;;;;;;;;;;;;;;;21.35;62.50;101295.56;5122108;27;1291;-68
2021/05/19 03:43:40;;;;;;;;;;;;;;;21.36;62.59;101301.72;5108417;27;1914;-68
2021/05/19 03:46:26;;;;;;;;;;;;;;;21.35;62.52;101297.38;5123191;27;1311;-68
2021/05/19 03:49:11;;;;;;;;;;;;;;;21.35;62.70;101292.06;5128479;27;1620;-68
2021/05/19 03:51:57;;;;;;;;;;;;;;;21.36;62.41;101294.63;5142522;27;1306;-69
2021/05/19 03:54:43;;;;;;;;;;;;;;;21.34;62.63;101296.50;5128967;27;1070;-68
2021/05/19 03:57:28;;;;;;;;;;;;;;;21.35;62.47;101311.47;5143965;27;1283;-69
2021/05/19 04:00:15;;;;;;;;;;;;;;;21.36;62.36;101312.34;5144400;27;1381;-68
2021/05/19 04:03:01;;;;;;;;;;;;;;;21.35;62.42;101326.50;5143271;27;1901;-68
2021/05/19 04:05:46;;;;;;;;;;;;;;;21.33;62.40;101309.84;5123231;27;1275;-68
2021/05/19 04:08:32;;;;;;;;;;;;;;;21.34;62.61;101303.63;5128625;27;1154;-67
2021/05/19 04:11:17;;;;;;;;;;;;;;;21.34;62.69;101306.28;5141877;27;1314;-68
2021/05/19 04:14:03;;;;;;;;;;;;;;;21.33;62.69;101301.91;5142974;27;1053;-67
2021/05/19 04:16:48;;;;;;;;;;;;;;;21.34;62.52;101300.97;5128539;27;1307;-68
2021/05/19 04:19:33;;;;;;;;;;;;;;;21.33;62.70;101304.56;5144489;27;1208;-67
2021/05/19 04:22:19;;;;;;;;;;;;;;;21.33;62.48;101301.91;5143502;27;1947;-67
2021/05/19 04:25:08;;;;;;;;;;;;;;;21.32;62.75;101305.50;5143071;27;1294;-68
2021/05/19 04:27:53;;;;;;;;;;;;;;;21.32;62.40;101302.84;5126145;27;1046;-67
2021/05/19 04:30:38;;;;;;;;;;;;;;;21.32;62.62;101309.00;5142295;27;1315;-68
2021/05/19 04:33:24;;;;;;;;;;;;;;;21.32;62.58;101324.03;5142071;27;1097;-67
2021/05/19 04:36:09;;;;;;;;;;;;;;;21.33;62.65;101317.81;5127860;27;1302;-68
2021/05/19 04:38:56;;;;;;;;;;;;;;;21.31;62.31;101315.22;5141457;27;1057;-67
2021/05/19 04:41:41;;;;;;;;;;;;;;;21.33;62.64;101323.13;5140582;27;1308;-67
2021/05/19 04:44:27;;;;;;;;;;;;;;;21.31;62.74;101314.41;5141293;27;1959;-67
2021/05/19 04:47:12;;;;;;;;;;;;;;;21.31;62.71;101315.22;5141555;27;1334;-67
2021/05/19 04:49:58;;;;;;;;;;;;;;;21.31;62.58;101317.06;5143341;27;1664;-68
2021/05/19 04:52:43;;;;;;;;;;;;;;;21.31;62.59;101330.31;5141619;27;1041;-67
2021/05/19 04:55:30;;;;;;;;;;;;;;;21.31;62.49;101336.44;5127482;27;1291;-68
2021/05/19 04:58:15;;;;;;;;;;;;;;;21.29;62.54;101340.97;5142789;27;1185;-68
2021/05/19 05:01:00;;;;;;;;;;;;;;;21.29;62.56;101343.63;5127968;27;1295;-67
2021/05/19 05:03:47;;;;;;;;;;;;;;;21.32;62.52;101346.09;5139812;27;1909;-67
2021/05/19 05:06:32;;;;;;;;;;;;;;;21.41;62.83;101347.34;5140243;27;1405;-69
2021/05/19 05:09:18;;;;;;;;;;;;;;;21.40;62.27;101343.03;5142645;27;1087;-67
2021/05/19 05:12:03;;;;;;;;;;;;;;;21.36;62.60;101352.09;5134285;27;1378;-68
2021/05/19 05:14:48;;;;;;;;;;;;;;;21.35;62.35;101363.63;5140875;27;1085;-69
2021/05/19 05:17:34;;;;;;;;;;;;;;;21.35;62.53;101363.63;5142037;27;1097;-72
2021/05/19 05:20:21;;;;;;;;;;;;;;;21.37;62.48;101377.66;5142253;27;1373;-72
2021/05/19 05:23:06;;;;;;;;;;;;;;;21.36;62.54;101381.22;5139969;27;1964;-69
2021/05/19 05:25:52;;;;;;;;;;;;;;;21.35;62.14;101390.13;5125629;27;1325;-70
2021/05/19 05:28:37;;;;;;;;;;;;;;;21.33;62.47;101387.56;5141463;27;1096;-70
2021/05/19 05:31:22;;;;;;;;;;;;;;;21.34;62.48;101388.44;5139120;27;1385;-71
2021/05/19 05:34:08;;;;;;;;;;;;;;;21.41;62.65;101395.06;5126243;27;1026;-70
2021/05/19 05:36:54;;;;;;;;;;;;;;;21.39;62.16;101405.75;5140286;27;1305;-67
2021/05/19 05:39:39;;;;;;;;;;;;;;;21.36;62.26;101402.44;5141404;27;1131;-68
2021/05/19 05:42:26;;;;;;;;;;;;;;;21.33;62.12;101405.25;5125486;27;1968;-66
2021/05/19 05:45:11;;;;;;;;;;;;;;;21.36;62.47;101402.44;5125249;27;1338;-68
2021/05/19 05:47:57;;;;;;;;;;;;;;;21.38;62.08;101409.34;5140782;27;1070;-68
2021/05/19 05:50:43;;;;;;;;;;;;;;;21.43;62.31;101401.16;5141378;27;1389;-70
2021/05/19 05:53:28;;;;;;;;;;;;;;;21.46;62.07;101420.34;5140151;27;1132;-68
2021/05/19 05:56:13;;;;;;;;;;;;;;;21.39;61.97;101418.16;5139826;27;1317;-71
2021/05/19 05:59:00;;;;;;;;;;;;;;;21.37;61.99;101426.19;5125303;27;1105;-68
2021/05/19 06:01:46;;;;;;;;;;;;;;;21.51;62.67;101418.31;5141073;27;1258;-67
2021/05/19 06:04:31;;;;;;;;;;;;;;;21.45;61.86;101417.81;5140115;27;1996;-68
2021/05/19 06:07:17;;;;;;;;;;;;;;;21.42;61.98;101407.38;5141021;27;1369;-68
2021/05/19 06:10:04;;;;;;;;;;;;;;;21.37;62.07;101410.28;5126700;27;1154;-67
2021/05/19 06:12:49;;;;;;;;;;;;;;;21.37;61.66;101415.56;5139785;27;1049;-67
2021/05/19 06:15:35;;;;;;;;;;;;;;;21.37;62.00;101414.75;5140515;27;1338;-68
2021/05/19 06:18:20;;;;;;;;;;;;;;;21.38;61.69;101405.84;5141230;27;1128;-68
2021/05/19 06:21:05;;;;;;;;;;;;;;;21.37;61.74;101420.06;5140864;27;1421;-67
2021/05/19 06:23:51;;;;;;;;;;;;;;;21.43;61.94;101411.75;5126624;27;1906;-67
2021/05/19 06:26:37;;;;;;;;;;;;;;;21.39;61.88;101418.16;5134269;27;1359;-67
2021/05/19 06:29:22;;;;;;;;;;;;;;;21.41;61.79;101418.91;5140412;27;998;-67
2021/05/19 06:32:08;;;;;;;;;;;;;;;21.35;61.87;101429.88;5138858;27;1319;-66
2021/05/19 06:34:53;;;;;;;;;;;;;;;21.36;61.41;101439.53;5139381;27;1160;-69
2021/05/19 06:37:39;;;;;;;;;;;;;;;21.34;61.66;101431.66;5138749;27;1235;-67
2021/05/19 06:40:24;;;;;;;;;;;;;;;21.32;61.33;101438.00;5139730;27;1416;-67
2021/05/19 06:43:10;;;;;;;;;;;;;;;21.36;61.69;101444.84;5138612;27;1963;-68
2021/05/19 06:45:56;;;;;;;;;;;;;;;21.39;61.64;101434.06;5123643;27;1499;-68
2021/05/19 06:48:41;;;;;;;;;;;;;;;21.36;61.29;101427.16;5136120;27;1296;-66
2021/05/19 06:51:27;;;;;;;;;;;;;;;21.37;61.34;101436.78;5137814;27;1480;-68
2021/05/19 06:54:13;;;;;;;;;;;;;;;21.39;61.48;101439.34;5140924;27;1114;-67
2021/05/19 06:56:58;;;;;;;;;;;;;;;21.41;61.18;101445.41;5137221;27;1393;-67
2021/05/19 06:59:44;;;;;;;;;;;;;;;21.41;61.23;101451.56;5140383;27;1382;-66
2021/05/19 07:02:29;;;;;;;;;;;;;;;21.51;61.42;101452.78;5138769;27;1422;-67
2021/05/19 07:05:15;;;;;;;;;;;;;;;21.46;61.23;101459.28;5139640;27;1419;-67
2021/05/19 07:08:01;;;;;;;;;;;;;;;21.44;61.48;101463.78;5124819;27;1276;-67
2021/05/19 07:10:46;;;;;;;;;;;;;;;21.41;60.65;101466.63;5141509;27;1346;-67
2021/05/19 07:13:34;;;;;;;;;;;;;;;21.47;61.10;101463.63;5136725;27;1208;-68
2021/05/19 07:16:19;;;;;;;;;;;;;;;21.39;60.45;101473.81;5137018;27;1433;-68
2021/05/19 07:19:05;;;;;;;;;;;;;;;21.35;60.31;101474.91;5139987;27;1335;-68
2021/05/19 07:21:51;;;;;;;;;;;;;;;21.32;59.99;101470.66;5139210;27;1374;-68
2021/05/19 07:24:36;;;;;;;;;;;;;;;21.32;60.16;101475.09;5122173;27;1905;-69
2021/05/19 07:27:22;;;;;;;;;;;;;;;21.32;60.14;101485.69;5138875;27;1382;-67
2021/05/19 07:30:07;;;;;;;;;;;;;;;21.41;60.52;101479.88;5140289;27;1099;-73
2021/05/19 07:32:53;;;;;;;;;;;;;;;21.46;60.59;101469.88;5137204;27;1734;-69
2021/05/19 07:35:39;;;;;;;;;;;;;;;21.39;60.89;101473.81;5136229;27;1259;-69
2021/05/19 07:38:25;;;;;;;;;;;;;;;21.44;61.23;101495.59;5136138;27;1106;-68
2021/05/19 07:41:10;;;;;;;;;;;;;;;21.46;61.54;101488.44;5137842;27;1398;-68
2021/05/19 07:43:56;;;;;;;;;;;;;;;21.51;62.01;101502.28;5137821;27;1921;-68
2021/05/19 07:46:41;;;;;;;;;;;;;;;21.48;61.11;101508.59;5123691;27;1416;-66
2021/05/19 07:49:25;;;;;;;;;;;;;;;21.46;59.87;101496.38;5139009;27;1538;-67
2021/05/19 07:52:10;;;;;;;;;;;;;;;21.46;57.01;101504.34;5123353;27;1303;-66
2021/05/19 07:54:54;;;;;;;;;;;;;;;21.47;56.47;101500.72;5138145;27;1056;-69
2021/05/19 07:57:54;;;;;;;;;;;;;;;21.42;55.54;101498.34;5135939;27;1235;-67
2021/05/19 08:00:55;;;;;;;;;;;;;;;21.41;53.92;101509.03;5122966;27;1318;-69
2021/05/19 08:03:39;;;;;;;;;;;;;;;21.37;53.49;101499.56;5121057;27;1913;-68
2021/05/19 08:06:26;;;;;;;;;;;;;;;21.35;53.20;101512.88;5122531;27;1313;-68
2021/05/19 08:09:10;;;;;;;;;;;;;;;21.34;52.89;101505.03;5138654;27;1086;-69
2021/05/19 08:11:54;;;;;;;;;;;;;;;21.35;52.78;101512.88;5123182;27;1412;-68
2021/05/19 08:14:38;;;;;;;;;;;;;;;21.34;52.32;101523.59;5138469;27;1267;-67
2021/05/19 08:17:22;;;;;;;;;;;;;;;21.31;51.75;101513.97;5136886;27;1389;-68
2021/05/19 08:20:07;;;;;;;;;;;;;;;21.31;51.76;101519.28;5139527;27;1102;-69
2021/05/19 08:22:53;;;;;;;;;;;;;;;21.30;51.63;101514.94;5140850;27;1175;-69
2021/05/19 08:25:38;;;;;;;;;;;;;;;21.30;51.42;101514.09;5126528;27;1406;-68
2021/05/19 08:28:23;;;;;;;;;;;;;;;21.30;51.10;101519.38;5140573;27;1093;-68
2021/05/19 08:31:10;;;;;;;;;;;;;;;21.27;50.75;101515.13;5141344;27;1299;-67
2021/05/19 08:34:06;;;;;;;;;;;;;;;21.27;50.76;101506.31;5140644;27;1070;-68
2021/05/19 08:36:51;;;;;;;;;;;;;;;21.24;50.31;101508.19;5126020;27;1406;-66
2021/05/19 08:39:37;;;;;;;;;;;;;;;21.25;50.31;101501.06;5143149;27;1166;-69
2021/05/19 08:42:23;;;;;;;;;;;;;;;21.26;50.33;101505.44;5125963;27;1327;-67
2021/05/19 08:45:10;;;;;;;;;;;;;;;21.25;50.51;101511.66;5140643;27;1902;-68
2021/05/19 08:47:59;;;;;;;;;;;;;;;21.25;50.42;101509.03;5123499;27;1196;-68
2021/05/19 08:50:45;;;;;;;;;;;;;;;21.25;51.16;101506.38;5140279;27;1431;-69
2021/05/19 08:53:31;;;;;;;;;;;;;;;21.25;50.88;101501.06;5140782;27;1101;-68
2021/05/19 08:56:16;;;;;;;;;;;;;;;21.24;51.36;101502.91;5126034;27;1306;-68
2021/05/19 08:59:04;;;;;;;;;;;;;;;21.24;51.66;101510.84;5141321;27;1069;-68
2021/05/19 09:01:53;;;;;;;;;;;;;;;21.25;51.81;101511.66;5139896;27;1259;-68
2021/05/19 09:04:42;;;;;;;;;;;;;;;21.22;52.10;101507.41;5126230;27;1994;-69
2021/05/19 09:07:27;;;;;;;;;;;;;;;21.23;52.50;101514.41;5124251;27;1392;-69
2021/05/19 09:10:17;;;;;;;;;;;;;;;21.23;52.94;101526.81;5140848;27;1344;-68
2021/05/19 09:13:02;;;;;;;;;;;;;;;21.21;53.17;101521.59;5141118;27;1128;-67
2021/05/19 09:15:49;;;;;;;;;;;;;;;21.20;53.46;101525.19;5139332;27;1318;-69
2021/05/19 09:18:47;;;;;;;;;;;;;;;21.21;53.63;101536.66;5119416;27;1109;-67
2021/05/19 09:21:32;;;;;;;;;;;;;;;21.21;54.54;101536.66;5140230;27;1334;-67
2021/05/19 09:24:37;;;;;;;;;;;;;;;21.21;53.87;101537.50;5140489;27;1925;-67
2021/05/19 09:27:22;;;;;;;;;;;;;;;21.19;53.50;101544.66;5141462;27;1328;-67
2021/05/19 09:30:10;;;;;;;;;;;;;;;21.18;53.99;101542.97;5125346;27;1387;-67
2021/05/19 09:33:09;;;;;;;;;;;;;;;21.18;53.68;101539.47;5140211;27;1092;-68
2021/05/19 09:36:14;;;;;;;;;;;;;;;21.19;53.76;101536.72;5140663;27;1323;-67
2021/05/19 09:38:59;;;;;;;;;;;;;;;21.20;53.68;101534.94;5141278;27;1599;-67
2021/05/19 09:41:45;;;;;;;;;;;;;;;21.21;54.19;101539.28;5126171;27;1430;-67
2021/05/19 09:44:30;;;;;;;;;;;;;;;21.21;54.26;101536.66;5125456;27;1906;-67
2021/05/19 09:48:06;;;;;;;;;;;;;;;21.20;54.22;101541.09;5139296;27;1413;-66
2021/05/19 09:50:56;;;;;;;;;;;;;;;21.19;54.61;101535.84;5139491;27;1611;-68
2021/05/19 09:53:47;;;;;;;;;;;;;;;21.18;54.70;101532.38;5125494;27;1118;-68
2021/05/19 09:56:33;;;;;;;;;;;;;;;21.18;54.60;101534.16;5140184;27;1303;-67
2021/05/19 09:59:20;;;;;;;;;;;;;;;21.17;54.54;101529.78;5140355;27;1352;-67
2021/05/19 10:02:06;;;;;;;;;;;;;;;21.17;54.98;101535.09;5140581;27;1316;-67
2021/05/19 10:04:56;;;;;;;;;;;;;;;21.17;54.80;101538.59;5138915;27;1905;-66
2021/05/19 10:07:41;;;;;;;;;;;;;;;21.17;54.85;101535.09;5124954;27;1101;-68
2021/05/19 10:10:27;;;;;;;;;;;;;;;21.17;54.61;101535.09;5140807;27;1409;-67
2021/05/19 10:13:13;;;;;;;;;;;;;;;21.17;54.56;101524.50;5123304;27;1216;-68
2021/05/19 10:16:01;;;;;;;;;;;;;;;21.15;54.84;101524.59;5124355;27;1321;-67
2021/05/19 10:18:48;;;;;;;;;;;;;;;21.17;54.94;101529.78;5140534;27;1153;-68
2021/05/19 10:21:34;;;;;;;;;;;;;;;21.16;55.22;101528.94;5138283;27;1263;-68
2021/05/19 10:24:23;;;;;;;;;;;;;;;21.15;54.93;101527.25;5139185;27;2000;-68
2021/05/19 10:27:10;;;;;;;;;;;;;;;21.16;54.89;101518.34;5140031;27;1415;-69
2021/05/19 10:29:57;;;;;;;;;;;;;;;21.16;55.25;101515.69;5138811;27;1137;-68
2021/05/19 10:32:42;;;;;;;;;;;;;;;21.17;55.20;101524.50;5139557;27;1070;-70
2021/05/19 10:35:28;;;;;;;;;;;;;;;21.19;55.11;101507.56;5139666;27;1417;-72
2021/05/19 10:38:47;;;;;;;;;;;;;;;21.19;54.85;101519.97;5122806;27;1358;-69
2021/05/19 10:41:40;;;;;;;;;;;;;;;21.17;55.03;101514.75;5105075;27;1353;-69
2021/05/19 10:44:28;;;;;;;;;;;;;;;21.18;55.73;101505.03;5138294;27;1980;-67
2021/05/19 10:47:24;;;;;;;;;;;;;;;21.27;55.96;101504.50;5134908;27;1410;-68
2021/05/19 10:59:00;;;;;;;;;;;;;;;21.20;54.63;101508.44;5138147;27;1097;-68
2021/05/19 11:01:51;;;;;;;;;;;;;;;21.20;54.62;101509.28;5138486;27;1306;-67
2021/05/19 11:04:36;;;;;;;;;;;;;;;21.21;54.65;101508.38;5139597;27;1913;-66
2021/05/19 11:07:21;;;;;;;;;;;;;;;21.20;54.71;101506.63;5137311;27;1243;-67
2021/05/19 11:10:26;;;;;;;;;;;;;;;21.22;54.68;101506.53;5136504;27;1246;-66
2021/05/19 11:13:11;;;;;;;;;;;;;;;21.23;54.97;101498.53;5137622;27;1113;-68
2021/05/19 11:19:05;;;;;;;;;;;;;;;21.25;54.66;101491.34;5136848;27;1014;-67
2021/05/19 11:22:01;;;;;;;;;;;;;;;21.25;55.03;101490.47;5135967;27;1251;-71
2021/05/19 11:24:54;;;;;;;;;;;;;;;21.30;54.68;101498.19;5118075;27;1968;-70
2021/05/19 11:27:46;;;;;;;;;;;;;;;21.29;54.98;101485.88;5138486;27;1082;-67
2021/05/19 11:30:31;;;;;;;;;;;;;;;21.28;54.44;101487.66;5138472;27;1335;-67
2021/05/19 11:33:21;;;;;;;;;;;;;;;21.26;54.68;101492.19;5135420;27;1426;-67
2021/05/19 11:36:07;;;;;;;;;;;;;;;21.28;54.61;101492.13;5138133;27;1268;-68
2021/05/19 11:38:52;;;;;;;;;;;;;;;21.28;54.63;101494.78;5139159;27;1113;-67
2021/05/19 11:41:37;;;;;;;;;;;;;;;21.27;54.41;101488.63;5138996;27;1377;-68
2021/05/19 11:44:35;;;;;;;;;;;;;;;21.27;54.60;101493.91;5139110;27;1985;-69
2021/05/19 11:47:39;;;;;;;;;;;;;;;21.33;54.58;101490.06;5138544;27;1410;-69
2021/05/19 11:50:29;;;;;;;;;;;;;;;21.32;55.00;101475.09;5121374;27;1616;-67
2021/05/19 11:53:15;;;;;;;;;;;;;;;21.32;54.44;101469.78;5140204;27;1142;-67
2021/05/19 11:56:01;;;;;;;;;;;;;;;21.35;53.82;101481.06;5125822;27;1351;-69
2021/05/19 11:58:46;;;;;;;;;;;;;;;21.47;54.88;101480.38;5142512;27;1461;-67
2021/05/19 12:01:32;;;;;;;;;;;;;;;21.52;52.83;101472.19;5142016;27;1381;-67
2021/05/19 12:04:17;;;;;;;;;;;;;;;21.51;53.10;101470.47;5143128;27;1909;-71
2021/05/19 12:07:07;;;;;;;;;;;;;;;21.50;53.03;101474.03;5141404;27;1377;-71
2021/05/19 12:09:52;;;;;;;;;;;;;;;21.56;52.79;101481.66;5142141;27;1048;-71
2021/05/19 12:12:38;;;;;;;;;;;;;;;21.57;52.75;101475.41;5142478;27;1070;-69
2021/05/19 12:15:23;;;;;;;;;;;;;;;21.53;52.60;101481.81;5141355;27;1298;-72
2021/05/19 12:18:09;;;;;;;;;;;;;;;21.53;52.71;101476.53;5142848;27;1112;-68
2021/05/19 12:20:54;;;;;;;;;;;;;;;21.56;53.51;101485.16;5142113;27;1304;-69
2021/05/19 12:23:40;;;;;;;;;;;;;;;21.63;53.99;101485.66;5136496;27;1513;-65
2021/05/19 12:26:26;;;;;;;;;;;;;;;21.59;53.40;101473.53;5140069;27;1313;-68
2021/05/19 12:29:29;;;;;;;;;;;;;;;21.58;53.52;101477.97;5135724;27;1145;-70
2021/05/19 12:32:19;;;;;;;;;;;;;;;21.56;53.33;101479.00;5141985;27;1351;-69
2021/05/19 12:35:07;;;;;;;;;;;;;;;21.61;53.92;101467.19;5125903;27;1118;-68
2021/05/19 12:37:58;;;;;;;;;;;;;;;21.59;53.58;101465.56;5141046;27;1142;-67
2021/05/19 12:40:45;;;;;;;;;;;;;;;21.58;54.13;101467.34;5139175;27;1333;-68
2021/05/19 12:43:31;;;;;;;;;;;;;;;21.61;54.81;101455.75;5141101;27;1137;-74
2021/05/19 12:46:18;;;;;;;;;;;;;;;21.64;54.17;101463.53;5141607;27;1906;-70
2021/05/19 12:49:13;;;;;;;;;;;;;;;21.61;54.17;101453.09;5127814;27;1271;-69
2021/05/19 12:51:59;;;;;;;;;;;;;;;21.59;53.78;101462.91;5128375;27;1389;-71
2021/05/19 12:54:49;;;;;;;;;;;;;;;21.58;54.04;101456.75;5139254;27;1027;-72
2021/05/19 12:57:35;;;;;;;;;;;;;;;21.59;53.81;101452.31;5127090;27;1420;-73
2021/05/19 13:00:22;;;;;;;;;;;;;;;21.59;53.93;101461.13;5119259;27;1382;-71
2021/05/19 13:03:10;;;;;;;;;;;;;;;21.60;53.57;101464.63;5140499;27;1149;-72
2021/05/19 13:06:00;;;;;;;;;;;;;;;21.62;53.93;101452.13;5139161;27;1902;-72
2021/05/19 13:08:58;;;;;;;;;;;;;;;21.67;54.88;101463.34;5139472;27;1046;-71
2021/05/19 13:11:45;;;;;;;;;;;;;;;21.68;54.51;101463.25;5142225;27;1291;-72
2021/05/19 13:14:42;;;;;;;;;;;;;;;21.65;53.35;101455.47;5140231;27;1148;-71
2021/05/19 13:17:44;;;;;;;;;;;;;;;21.64;53.66;101443.13;5125940;27;1318;-75
2021/05/19 13:20:31;;;;;;;;;;;;;;;21.65;53.62;101465.22;5139969;27;1327;-71
2021/05/19 13:23:16;;;;;;;;;;;;;;;21.66;53.87;101464.28;5124803;27;1135;-71
2021/05/19 13:26:06;;;;;;;;;;;;;;;21.66;53.40;101449.22;5140190;27;1909;-71
2021/05/19 13:28:52;;;;;;;;;;;;;;;21.65;52.91;101455.47;5139066;27;1029;-69
2021/05/19 13:36:13;;;;;;;;;;;;;;;21.71;54.51;101446.28;5136972;27;1175;-68
2021/05/19 13:37:53;;;;;;;;;;;;;;;21.72;54.66;101464.78;5137968;27;1103;-66
2021/05/19 13:40:39;;;;;;;;;;;;;;;21.72;54.64;101466.56;5139160;27;1440;-67
2021/05/19 13:43:24;;;;;;;;;;;;;;;21.73;54.70;101455.03;5139390;27;1093;-69
2021/05/19 13:46:10;;;;;;;;;;;;;;;21.69;53.20;101453.50;5137423;27;1902;-68
2021/05/19 13:48:55;;;;;;;;;;;;;;;21.68;53.43;101451.78;5123835;27;1573;-69
2021/05/19 13:51:42;;;;;;;;;;;;;;;21.67;53.60;101450.09;5140397;27;1397;-67
2021/05/19 13:54:28;;;;;;;;;;;;;;;21.71;54.32;101455.09;5138853;27;1236;-67
2021/05/19 13:57:14;;;;;;;;;;;;;;;21.69;53.69;101443.75;5139167;27;1326;-69
2021/05/19 14:00:00;;;;;;;;;;;;;;;21.67;53.93;101450.09;5139748;27;1246;-69
2021/05/19 14:02:49;;;;;;;;;;;;;;;21.64;52.96;101442.31;5140863;27;1117;-71
2021/05/19 14:05:34;;;;;;;;;;;;;;;21.62;53.05;101436.22;5141179;27;1906;-69
2021/05/19 14:08:19;;;;;;;;;;;;;;;21.61;52.34;101440.66;5140079;27;1098;-69
2021/05/19 14:11:14;;;;;;;;;;;;;;;21.61;52.38;101442.50;5140588;27;1334;-69
2021/05/19 14:28:47;;;;;;;;;;;;;;;21.66;53.67;101428.03;5138920;27;1093;-68
2021/05/19 14:31:32;;;;;;;;;;;;;;;21.64;53.30;101429.88;5137828;27;1291;-69
2021/05/19 14:34:18;;;;;;;;;;;;;;;21.60;52.85;101425.72;5139231;27;1548;-68
2021/05/19 15:00:42;;;;;;;;;;;;;;;21.65;53.52;101404.22;5137742;27;1330;-67
2021/05/19 15:03:28;;;;;;;;;;;;;;;21.66;53.09;101417.41;5139458;27;1202;-68
2021/05/19 15:06:13;;;;;;;;;;;;;;;21.66;52.96;101405.94;5133022;27;1968;-67
2021/05/19 15:08:59;;;;;;;;;;;;;;;21.67;53.67;101416.44;5123198;27;1124;-68
2021/05/19 15:11:44;;;;;;;;;;;;;;;21.71;54.18;101419.78;5138200;27;1297;-70
2021/05/19 15:14:29;;;;;;;;;;;;;;;21.75;53.76;101421.31;5138687;27;1238;-68
2021/05/19 15:17:15;;;;;;;;;;;;;;;21.76;52.86;101433.66;5133859;27;1393;-68
2021/05/19 15:20:00;;;;;;;;;;;;;;;21.78;52.89;101439.69;5123179;27;1176;-65
2021/05/19 15:22:45;;;;;;;;;;;;;;;21.81;53.18;101431.56;5138227;27;1122;-72
2021/05/19 15:25:31;;;;;;;;;;;;;;;21.67;50.63;101439.47;5135393;27;1965;-74
2021/05/19 15:28:33;;;;;;;;;;;;;;;21.57;50.71;101431.22;5128921;27;1108;-74